sensor_id;sensor_type;location;lat;lon;timestamp;pressure;altitude;pressure_sealevel;temperature
66403;BMP180;53212;52.112;5.144;2024-03-06T00:00:28;101759.80;;;5.70
66403;BMP180;53212;52.112;5.144;2024-03-06T00:02:53;101763.60;;;5.64
66403;BMP180;53212;52.112;5.144;2024-03-06T00:05:20;101769.00;;;5.60
66403;BMP180;53212;52.112;5.144;2024-03-06T00:07:46;101766.60;;;5.60
66403;BMP180;53212;52.112;5.144;2024-03-06T00:10:11;101773.20;;;5.60
66403;BMP180;53212;52.112;5.144;2024-03-06T00:12:36;101778.60;;;5.60
66403;BMP180;53212;52.112;5.144;2024-03-06T00:15:02;101783.20;;;5.60
66403;BMP180;53212;52.112;5.144;2024-03-06T00:17:28;101781.00;;;5.60
66403;BMP180;53212;52.112;5.144;2024-03-06T00:19:54;101781.60;;;5.60
66403;BMP180;53212;52.112;5.144;2024-03-06T00:22:19;101788.20;;;5.60
66403;BMP180;53212;52.112;5.144;2024-03-06T00:24:44;101788.40;;;5.60
66403;BMP180;53212;52.112;5.144;2024-03-06T00:27:10;101794.00;;;5.70
66403;BMP180;53212;52.112;5.144;2024-03-06T00:29:35;101791.00;;;5.70
66403;BMP180;53212;52.112;5.144;2024-03-06T00:32:03;101793.00;;;5.78
66403;BMP180;53212;52.112;5.144;2024-03-06T00:34:29;101796.20;;;5.80
66403;BMP180;53212;52.112;5.144;2024-03-06T00:36:54;101792.00;;;5.82
66403;BMP180;53212;52.112;5.144;2024-03-06T00:39:20;101790.20;;;5.90
66403;BMP180;53212;52.112;5.144;2024-03-06T00:41:45;101790.60;;;6.00
66403;BMP180;53212;52.112;5.144;2024-03-06T00:44:11;101797.60;;;6.08
66403;BMP180;53212;52.112;5.144;2024-03-06T00:46:36;101795.00;;;6.14
66403;BMP180;53212;52.112;5.144;2024-03-06T00:49:02;101801.20;;;6.20
66403;BMP180;53212;52.112;5.144;2024-03-06T00:51:27;101801.80;;;6.30
66403;BMP180;53212;52.112;5.144;2024-03-06T00:53:53;101802.60;;;6.30
66403;BMP180;53212;52.112;5.144;2024-03-06T00:56:18;101804.00;;;6.30
66403;BMP180;53212;52.112;5.144;2024-03-06T00:58:43;101805.40;;;6.30
66403;BMP180;53212;52.112;5.144;2024-03-06T01:01:09;101807.00;;;6.26
66403;BMP180;53212;52.112;5.144;2024-03-06T01:03:34;101808.80;;;6.28
66403;BMP180;53212;52.112;5.144;2024-03-06T01:06:00;101806.40;;;6.30
66403;BMP180;53212;52.112;5.144;2024-03-06T01:08:25;101807.20;;;6.30
66403;BMP180;53212;52.112;5.144;2024-03-06T01:10:51;101811.20;;;6.30
66403;BMP180;53212;52.112;5.144;2024-03-06T01:13:19;101816.40;;;6.36
66403;BMP180;53212;52.112;5.144;2024-03-06T01:15:44;101818.20;;;6.40
66403;BMP180;53212;52.112;5.144;2024-03-06T01:18:09;101822.60;;;6.40
66403;BMP180;53212;52.112;5.144;2024-03-06T01:20:35;101822.60;;;6.40
66403;BMP180;53212;52.112;5.144;2024-03-06T01:23:01;101822.20;;;6.40
66403;BMP180;53212;52.112;5.144;2024-03-06T01:25:27;101819.80;;;6.46
66403;BMP180;53212;52.112;5.144;2024-03-06T01:27:52;101820.20;;;6.50
66403;BMP180;53212;52.112;5.144;2024-03-06T01:30:17;101813.80;;;6.48
66403;BMP180;53212;52.112;5.144;2024-03-06T01:32:43;101821.20;;;6.48
66403;BMP180;53212;52.112;5.144;2024-03-06T01:35:09;101821.60;;;6.40
66403;BMP180;53212;52.112;5.144;2024-03-06T01:37:34;101821.40;;;6.40
66403;BMP180;53212;52.112;5.144;2024-03-06T01:40:00;101825.40;;;6.40
66403;BMP180;53212;52.112;5.144;2024-03-06T01:42:25;101828.20;;;6.40
66403;BMP180;53212;52.112;5.144;2024-03-06T01:44:51;101827.00;;;6.42
66403;BMP180;53212;52.112;5.144;2024-03-06T01:47:16;101826.40;;;6.40
66403;BMP180;53212;52.112;5.144;2024-03-06T01:49:42;101827.80;;;6.40
66403;BMP180;53212;52.112;5.144;2024-03-06T01:52:11;101826.20;;;6.40
66403;BMP180;53212;52.112;5.144;2024-03-06T01:54:38;101825.60;;;6.34
66403;BMP180;53212;52.112;5.144;2024-03-06T01:57:06;101827.80;;;6.30
66403;BMP180;53212;52.112;5.144;2024-03-06T01:59:33;101825.20;;;6.30
66403;BMP180;53212;52.112;5.144;2024-03-06T02:01:58;101828.60;;;6.30
66403;BMP180;53212;52.112;5.144;2024-03-06T02:04:27;101831.60;;;6.30
66403;BMP180;53212;52.112;5.144;2024-03-06T02:06:53;101832.60;;;6.30
66403;BMP180;53212;52.112;5.144;2024-03-06T02:09:19;101833.20;;;6.32
66403;BMP180;53212;52.112;5.144;2024-03-06T02:11:45;101839.20;;;6.40
66403;BMP180;53212;52.112;5.144;2024-03-06T02:14:11;101840.80;;;6.40
66403;BMP180;53212;52.112;5.144;2024-03-06T02:16:37;101841.00;;;6.40
66403;BMP180;53212;52.112;5.144;2024-03-06T02:19:05;101845.00;;;6.40
66403;BMP180;53212;52.112;5.144;2024-03-06T02:21:30;101841.60;;;6.40
66403;BMP180;53212;52.112;5.144;2024-03-06T02:23:55;101846.00;;;6.40
66403;BMP180;53212;52.112;5.144;2024-03-06T02:26:22;101849.80;;;6.40
66403;BMP180;53212;52.112;5.144;2024-03-06T02:28:53;101850.80;;;6.40
66403;BMP180;53212;52.112;5.144;2024-03-06T02:31:20;101847.80;;;6.40
66403;BMP180;53212;52.112;5.144;2024-03-06T02:33:48;101844.20;;;6.40
66403;BMP180;53212;52.112;5.144;2024-03-06T02:36:17;101843.20;;;6.40
66403;BMP180;53212;52.112;5.144;2024-03-06T02:38:44;101844.60;;;6.42
66403;BMP180;53212;52.112;5.144;2024-03-06T02:41:12;101845.20;;;6.40
66403;BMP180;53212;52.112;5.144;2024-03-06T02:43:41;101850.80;;;6.40
66403;BMP180;53212;52.112;5.144;2024-03-06T02:46:07;101847.60;;;6.30
66403;BMP180;53212;52.112;5.144;2024-03-06T02:48:33;101851.00;;;6.20
66403;BMP180;53212;52.112;5.144;2024-03-06T02:50:59;101849.20;;;6.10
66403;BMP180;53212;52.112;5.144;2024-03-06T02:53:25;101849.20;;;6.10
66403;BMP180;53212;52.112;5.144;2024-03-06T02:55:51;101846.60;;;6.10
66403;BMP180;53212;52.112;5.144;2024-03-06T02:58:16;101850.60;;;6.08
66403;BMP180;53212;52.112;5.144;2024-03-06T03:00:45;101853.60;;;6.10
66403;BMP180;53212;52.112;5.144;2024-03-06T03:03:10;101851.80;;;6.10
66403;BMP180;53212;52.112;5.144;2024-03-06T03:05:39;101854.20;;;6.10
66403;BMP180;53212;52.112;5.144;2024-03-06T03:08:06;101853.20;;;6.10
66403;BMP180;53212;52.112;5.144;2024-03-06T03:10:32;101852.60;;;6.10
66403;BMP180;53212;52.112;5.144;2024-03-06T03:12:59;101852.20;;;6.10
66403;BMP180;53212;52.112;5.144;2024-03-06T03:15:25;101848.40;;;6.20
66403;BMP180;53212;52.112;5.144;2024-03-06T03:17:50;101844.80;;;6.20
66403;BMP180;53212;52.112;5.144;2024-03-06T03:20:16;101847.00;;;6.20
66403;BMP180;53212;52.112;5.144;2024-03-06T03:22:42;101850.80;;;6.30
66403;BMP180;53212;52.112;5.144;2024-03-06T03:25:10;101850.80;;;6.30
66403;BMP180;53212;52.112;5.144;2024-03-06T03:27:40;101855.20;;;6.20
66403;BMP180;53212;52.112;5.144;2024-03-06T03:30:10;101858.80;;;6.20
66403;BMP180;53212;52.112;5.144;2024-03-06T03:32:37;101854.80;;;6.20
66403;BMP180;53212;52.112;5.144;2024-03-06T03:35:07;101858.80;;;6.10
66403;BMP180;53212;52.112;5.144;2024-03-06T03:37:33;101864.60;;;6.10
66403;BMP180;53212;52.112;5.144;2024-03-06T03:39:59;101865.60;;;6.10
66403;BMP180;53212;52.112;5.144;2024-03-06T03:42:25;101872.40;;;6.10
66403;BMP180;53212;52.112;5.144;2024-03-06T03:44:50;101868.40;;;6.10
66403;BMP180;53212;52.112;5.144;2024-03-06T03:47:16;101873.20;;;6.00
66403;BMP180;53212;52.112;5.144;2024-03-06T03:49:41;101872.60;;;6.00
66403;BMP180;53212;52.112;5.144;2024-03-06T03:52:08;101875.20;;;6.00
66403;BMP180;53212;52.112;5.144;2024-03-06T03:54:33;101871.80;;;6.00
66403;BMP180;53212;52.112;5.144;2024-03-06T03:56:59;101876.60;;;6.00
66403;BMP180;53212;52.112;5.144;2024-03-06T03:59:25;101882.60;;;6.00
66403;BMP180;53212;52.112;5.144;2024-03-06T04:01:51;101881.20;;;6.00
66403;BMP180;53212;52.112;5.144;2024-03-06T04:04:17;101875.60;;;6.00
66403;BMP180;53212;52.112;5.144;2024-03-06T04:06:42;101876.80;;;6.00
66403;BMP180;53212;52.112;5.144;2024-03-06T04:09:07;101874.20;;;6.00
66403;BMP180;53212;52.112;5.144;2024-03-06T04:11:36;101876.00;;;6.00
66403;BMP180;53212;52.112;5.144;2024-03-06T04:14:04;101876.40;;;6.00
66403;BMP180;53212;52.112;5.144;2024-03-06T04:16:29;101877.80;;;6.00
66403;BMP180;53212;52.112;5.144;2024-03-06T04:18:55;101876.80;;;6.00
66403;BMP180;53212;52.112;5.144;2024-03-06T04:21:20;101882.40;;;6.00
66403;BMP180;53212;52.112;5.144;2024-03-06T04:23:48;101877.40;;;6.02
66403;BMP180;53212;52.112;5.144;2024-03-06T04:26:13;101877.20;;;6.10
66403;BMP180;53212;52.112;5.144;2024-03-06T04:28:38;101884.80;;;6.10
66403;BMP180;53212;52.112;5.144;2024-03-06T04:31:05;101887.80;;;6.10
66403;BMP180;53212;52.112;5.144;2024-03-06T04:33:30;101893.00;;;6.10
66403;BMP180;53212;52.112;5.144;2024-03-06T04:35:56;101890.60;;;6.08
66403;BMP180;53212;52.112;5.144;2024-03-06T04:38:21;101894.00;;;6.00
66403;BMP180;53212;52.112;5.144;2024-03-06T04:40:47;101902.00;;;6.00
66403;BMP180;53212;52.112;5.144;2024-03-06T04:43:13;101900.80;;;6.00
66403;BMP180;53212;52.112;5.144;2024-03-06T04:45:38;101897.80;;;5.92
66403;BMP180;53212;52.112;5.144;2024-03-06T04:48:04;101907.60;;;5.92
66403;BMP180;53212;52.112;5.144;2024-03-06T04:50:30;101909.80;;;5.90
66403;BMP180;53212;52.112;5.144;2024-03-06T04:52:56;101914.80;;;5.80
66403;BMP180;53212;52.112;5.144;2024-03-06T04:55:21;101912.80;;;5.80
66403;BMP180;53212;52.112;5.144;2024-03-06T04:57:48;101911.60;;;5.70
66403;BMP180;53212;52.112;5.144;2024-03-06T05:00:14;101912.60;;;5.70
66403;BMP180;53212;52.112;5.144;2024-03-06T05:02:40;101919.00;;;5.70
66403;BMP180;53212;52.112;5.144;2024-03-06T05:05:07;101922.40;;;5.60
66403;BMP180;53212;52.112;5.144;2024-03-06T05:07:36;101921.20;;;5.60
66403;BMP180;53212;52.112;5.144;2024-03-06T05:10:01;101914.20;;;5.52
66403;BMP180;53212;52.112;5.144;2024-03-06T05:12:28;101909.20;;;5.50
66403;BMP180;53212;52.112;5.144;2024-03-06T05:14:54;101911.20;;;5.40
66403;BMP180;53212;52.112;5.144;2024-03-06T05:17:20;101913.80;;;5.40
66403;BMP180;53212;52.112;5.144;2024-03-06T05:19:47;101922.60;;;5.30
66403;BMP180;53212;52.112;5.144;2024-03-06T05:22:13;101917.60;;;5.20
66403;BMP180;53212;52.112;5.144;2024-03-06T05:24:40;101920.80;;;5.18
66403;BMP180;53212;52.112;5.144;2024-03-06T05:27:06;101924.40;;;5.10
66403;BMP180;53212;52.112;5.144;2024-03-06T05:29:32;101923.80;;;5.10
66403;BMP180;53212;52.112;5.144;2024-03-06T05:31:57;101930.60;;;5.06
66403;BMP180;53212;52.112;5.144;2024-03-06T05:34:23;101929.60;;;5.00
66403;BMP180;53212;52.112;5.144;2024-03-06T05:36:49;101933.00;;;4.90
66403;BMP180;53212;52.112;5.144;2024-03-06T05:39:14;101935.80;;;4.90
66403;BMP180;53212;52.112;5.144;2024-03-06T05:41:41;101943.00;;;4.80
66403;BMP180;53212;52.112;5.144;2024-03-06T05:44:07;101954.40;;;4.80
66403;BMP180;53212;52.112;5.144;2024-03-06T05:46:33;101953.20;;;4.70
66403;BMP180;53212;52.112;5.144;2024-03-06T05:48:59;101954.00;;;4.70
66403;BMP180;53212;52.112;5.144;2024-03-06T05:51:26;101956.40;;;4.70
66403;BMP180;53212;52.112;5.144;2024-03-06T05:53:51;101965.00;;;4.66
66403;BMP180;53212;52.112;5.144;2024-03-06T05:56:18;101970.60;;;4.60
66403;BMP180;53212;52.112;5.144;2024-03-06T05:58:44;101973.60;;;4.60
66403;BMP180;53212;52.112;5.144;2024-03-06T06:01:16;101974.00;;;4.60
66403;BMP180;53212;52.112;5.144;2024-03-06T06:03:46;101975.00;;;4.60
66403;BMP180;53212;52.112;5.144;2024-03-06T06:06:15;101979.60;;;4.60
66403;BMP180;53212;52.112;5.144;2024-03-06T06:08:41;101982.80;;;4.60
66403;BMP180;53212;52.112;5.144;2024-03-06T06:11:06;101987.00;;;4.58
66403;BMP180;53212;52.112;5.144;2024-03-06T06:13:33;101995.40;;;4.60
66403;BMP180;53212;52.112;5.144;2024-03-06T06:15:59;102002.00;;;4.60
66403;BMP180;53212;52.112;5.144;2024-03-06T06:18:24;102004.80;;;4.56
66403;BMP180;53212;52.112;5.144;2024-03-06T06:20:50;102006.80;;;4.60
66403;BMP180;53212;52.112;5.144;2024-03-06T06:23:16;102011.00;;;4.70
66403;BMP180;53212;52.112;5.144;2024-03-06T06:25:41;102010.80;;;4.70
66403;BMP180;53212;52.112;5.144;2024-03-06T06:28:07;102014.80;;;4.80
66403;BMP180;53212;52.112;5.144;2024-03-06T06:30:32;102016.80;;;4.88
66403;BMP180;53212;52.112;5.144;2024-03-06T06:32:58;102017.80;;;4.90
66403;BMP180;53212;52.112;5.144;2024-03-06T06:35:26;102017.00;;;5.00
66403;BMP180;53212;52.112;5.144;2024-03-06T06:37:52;102026.20;;;5.08
66403;BMP180;53212;52.112;5.144;2024-03-06T06:40:18;102032.20;;;5.10
66403;BMP180;53212;52.112;5.144;2024-03-06T06:42:46;102034.60;;;5.12
66403;BMP180;53212;52.112;5.144;2024-03-06T06:45:15;102037.20;;;5.20
66403;BMP180;53212;52.112;5.144;2024-03-06T06:47:41;102043.60;;;5.30
66403;BMP180;53212;52.112;5.144;2024-03-06T06:50:07;102044.20;;;5.30
66403;BMP180;53212;52.112;5.144;2024-03-06T06:52:35;102054.60;;;5.30
66403;BMP180;53212;52.112;5.144;2024-03-06T06:55:01;102054.20;;;5.30
66403;BMP180;53212;52.112;5.144;2024-03-06T06:57:27;102055.60;;;5.30
66403;BMP180;53212;52.112;5.144;2024-03-06T06:59:53;102054.20;;;5.30
66403;BMP180;53212;52.112;5.144;2024-03-06T07:02:18;102058.00;;;5.30
66403;BMP180;53212;52.112;5.144;2024-03-06T07:04:44;102059.20;;;5.40
66403;BMP180;53212;52.112;5.144;2024-03-06T07:07:09;102064.00;;;5.40
66403;BMP180;53212;52.112;5.144;2024-03-06T07:09:35;102072.80;;;5.40
66403;BMP180;53212;52.112;5.144;2024-03-06T07:12:00;102079.40;;;5.50
66403;BMP180;53212;52.112;5.144;2024-03-06T07:14:26;102080.00;;;5.48
66403;BMP180;53212;52.112;5.144;2024-03-06T07:16:51;102083.80;;;5.50
66403;BMP180;53212;52.112;5.144;2024-03-06T07:19:17;102084.00;;;5.50
66403;BMP180;53212;52.112;5.144;2024-03-06T07:21:44;102084.20;;;5.50
66403;BMP180;53212;52.112;5.144;2024-03-06T07:24:09;102086.00;;;5.50
66403;BMP180;53212;52.112;5.144;2024-03-06T07:26:35;102086.00;;;5.50
66403;BMP180;53212;52.112;5.144;2024-03-06T07:29:00;102091.40;;;5.60
66403;BMP180;53212;52.112;5.144;2024-03-06T07:31:26;102092.80;;;5.60
66403;BMP180;53212;52.112;5.144;2024-03-06T07:33:52;102093.00;;;5.70
66403;BMP180;53212;52.112;5.144;2024-03-06T07:36:18;102096.20;;;5.72
66403;BMP180;53212;52.112;5.144;2024-03-06T07:38:43;102100.60;;;5.88
66403;BMP180;53212;52.112;5.144;2024-03-06T07:41:09;102105.00;;;5.96
66403;BMP180;53212;52.112;5.144;2024-03-06T07:43:36;102105.80;;;6.08
66403;BMP180;53212;52.112;5.144;2024-03-06T07:46:01;102112.00;;;6.10
66403;BMP180;53212;52.112;5.144;2024-03-06T07:48:27;102112.20;;;6.10
66403;BMP180;53212;52.112;5.144;2024-03-06T07:50:52;102116.00;;;6.16
66403;BMP180;53212;52.112;5.144;2024-03-06T07:53:18;102114.60;;;6.20
66403;BMP180;53212;52.112;5.144;2024-03-06T07:55:43;102115.60;;;6.30
66403;BMP180;53212;52.112;5.144;2024-03-06T07:58:09;102121.00;;;6.30
66403;BMP180;53212;52.112;5.144;2024-03-06T08:00:35;102128.00;;;6.30
66403;BMP180;53212;52.112;5.144;2024-03-06T08:03:01;102124.60;;;6.30
66403;BMP180;53212;52.112;5.144;2024-03-06T08:05:28;102134.80;;;6.38
66403;BMP180;53212;52.112;5.144;2024-03-06T08:07:54;102137.20;;;6.40
66403;BMP180;53212;52.112;5.144;2024-03-06T08:10:19;102144.60;;;6.40
66403;BMP180;53212;52.112;5.144;2024-03-06T08:12:45;102140.60;;;6.40
66403;BMP180;53212;52.112;5.144;2024-03-06T08:15:14;102140.40;;;6.48
66403;BMP180;53212;52.112;5.144;2024-03-06T08:17:42;102139.40;;;6.50
66403;BMP180;53212;52.112;5.144;2024-03-06T08:20:10;102144.00;;;6.60
66403;BMP180;53212;52.112;5.144;2024-03-06T08:22:40;102146.60;;;6.70
66403;BMP180;53212;52.112;5.144;2024-03-06T08:25:11;102152.20;;;6.84
66403;BMP180;53212;52.112;5.144;2024-03-06T08:27:39;102157.00;;;6.92
66403;BMP180;53212;52.112;5.144;2024-03-06T08:30:06;102162.40;;;7.00
66403;BMP180;53212;52.112;5.144;2024-03-06T08:32:35;102157.80;;;7.06
66403;BMP180;53212;52.112;5.144;2024-03-06T08:35:08;102158.80;;;7.10
66403;BMP180;53212;52.112;5.144;2024-03-06T08:37:41;102166.00;;;7.20
66403;BMP180;53212;52.112;5.144;2024-03-06T08:40:07;102170.40;;;7.30
66403;BMP180;53212;52.112;5.144;2024-03-06T08:42:35;102167.20;;;7.30
66403;BMP180;53212;52.112;5.144;2024-03-06T08:45:02;102171.60;;;7.40
66403;BMP180;53212;52.112;5.144;2024-03-06T08:47:27;102176.80;;;7.50
66403;BMP180;53212;52.112;5.144;2024-03-06T08:49:53;102176.40;;;7.60
66403;BMP180;53212;52.112;5.144;2024-03-06T08:52:20;102179.20;;;7.68
66403;BMP180;53212;52.112;5.144;2024-03-06T08:54:46;102184.80;;;7.70
66403;BMP180;53212;52.112;5.144;2024-03-06T08:57:12;102189.80;;;7.88
66403;BMP180;53212;52.112;5.144;2024-03-06T08:59:37;102191.20;;;8.00
66403;BMP180;53212;52.112;5.144;2024-03-06T09:02:17;102194.20;;;8.00
66403;BMP180;53212;52.112;5.144;2024-03-06T09:04:45;102196.60;;;8.06
66403;BMP180;53212;52.112;5.144;2024-03-06T09:07:11;102199.00;;;8.10
66403;BMP180;53212;52.112;5.144;2024-03-06T09:09:38;102197.20;;;8.10
66403;BMP180;53212;52.112;5.144;2024-03-06T09:12:07;102204.20;;;8.20
66403;BMP180;53212;52.112;5.144;2024-03-06T09:14:39;102212.40;;;8.28
66403;BMP180;53212;52.112;5.144;2024-03-06T09:17:06;102214.40;;;8.30
66403;BMP180;53212;52.112;5.144;2024-03-06T09:19:32;102213.60;;;8.42
66403;BMP180;53212;52.112;5.144;2024-03-06T09:21:59;102211.80;;;8.60
66403;BMP180;53212;52.112;5.144;2024-03-06T09:24:25;102220.00;;;8.70
66403;BMP180;53212;52.112;5.144;2024-03-06T09:26:52;102221.80;;;8.82
66403;BMP180;53212;52.112;5.144;2024-03-06T09:29:18;102226.40;;;9.00
66403;BMP180;53212;52.112;5.144;2024-03-06T09:31:44;102226.20;;;9.00
66403;BMP180;53212;52.112;5.144;2024-03-06T09:34:11;102230.00;;;9.10
66403;BMP180;53212;52.112;5.144;2024-03-06T09:36:50;102231.80;;;9.20
66403;BMP180;53212;52.112;5.144;2024-03-06T09:39:17;102234.60;;;9.30
66403;BMP180;53212;52.112;5.144;2024-03-06T09:41:53;102237.40;;;9.40
66403;BMP180;53212;52.112;5.144;2024-03-06T09:44:19;102247.00;;;9.52
66403;BMP180;53212;52.112;5.144;2024-03-06T09:46:47;102247.00;;;9.50
66403;BMP180;53212;52.112;5.144;2024-03-06T09:49:17;102246.20;;;9.40
66403;BMP180;53212;52.112;5.144;2024-03-06T09:51:47;102251.80;;;9.40
66403;BMP180;53212;52.112;5.144;2024-03-06T09:54:16;102250.80;;;9.40
66403;BMP180;53212;52.112;5.144;2024-03-06T09:56:48;102262.60;;;9.40
66403;BMP180;53212;52.112;5.144;2024-03-06T09:59:14;102264.00;;;9.50
66403;BMP180;53212;52.112;5.144;2024-03-06T10:01:55;102265.80;;;9.58
66403;BMP180;53212;52.112;5.144;2024-03-06T10:04:22;102269.20;;;9.50
66403;BMP180;53212;52.112;5.144;2024-03-06T10:06:48;102268.40;;;9.50
66403;BMP180;53212;52.112;5.144;2024-03-06T10:09:18;102268.40;;;9.42
66403;BMP180;53212;52.112;5.144;2024-03-06T10:11:45;102266.60;;;9.48
66403;BMP180;53212;52.112;5.144;2024-03-06T10:14:11;102270.40;;;9.42
66403;BMP180;53212;52.112;5.144;2024-03-06T10:16:37;102273.80;;;9.50
66403;BMP180;53212;52.112;5.144;2024-03-06T10:19:16;102277.20;;;9.50
66403;BMP180;53212;52.112;5.144;2024-03-06T10:21:46;102280.40;;;9.50
66403;BMP180;53212;52.112;5.144;2024-03-06T10:24:29;102288.40;;;9.50
66403;BMP180;53212;52.112;5.144;2024-03-06T10:26:56;102287.00;;;9.48
66403;BMP180;53212;52.112;5.144;2024-03-06T10:29:25;102284.60;;;9.40
66403;BMP180;53212;52.112;5.144;2024-03-06T10:31:55;102285.80;;;9.30
66403;BMP180;53212;52.112;5.144;2024-03-06T10:34:24;102280.40;;;9.40
66403;BMP180;53212;52.112;5.144;2024-03-06T10:37:02;102283.80;;;9.50
66403;BMP180;53212;52.112;5.144;2024-03-06T10:39:33;102279.80;;;9.60
66403;BMP180;53212;52.112;5.144;2024-03-06T10:42:02;102282.60;;;9.60
66403;BMP180;53212;52.112;5.144;2024-03-06T10:44:27;102287.00;;;9.60
66403;BMP180;53212;52.112;5.144;2024-03-06T10:47:02;102290.80;;;9.50
66403;BMP180;53212;52.112;5.144;2024-03-06T10:49:30;102294.00;;;9.40
66403;BMP180;53212;52.112;5.144;2024-03-06T10:52:01;102287.00;;;9.40
66403;BMP180;53212;52.112;5.144;2024-03-06T10:54:29;102289.00;;;9.40
66403;BMP180;53212;52.112;5.144;2024-03-06T10:56:56;102298.80;;;9.40
66403;BMP180;53212;52.112;5.144;2024-03-06T10:59:26;102296.40;;;9.40
66403;BMP180;53212;52.112;5.144;2024-03-06T11:02:00;102297.40;;;9.44
66403;BMP180;53212;52.112;5.144;2024-03-06T11:04:26;102294.00;;;9.50
66403;BMP180;53212;52.112;5.144;2024-03-06T11:06:57;102300.00;;;9.52
66403;BMP180;53212;52.112;5.144;2024-03-06T11:09:26;102298.60;;;9.62
66403;BMP180;53212;52.112;5.144;2024-03-06T11:11:53;102296.60;;;9.70
66403;BMP180;53212;52.112;5.144;2024-03-06T11:14:24;102297.40;;;9.78
66403;BMP180;53212;52.112;5.144;2024-03-06T11:17:08;102304.40;;;9.80
66403;BMP180;53212;52.112;5.144;2024-03-06T11:20:17;102300.20;;;9.86
66403;BMP180;53212;52.112;5.144;2024-03-06T11:28:15;102304.20;;;10.10
66403;BMP180;53212;52.112;5.144;2024-03-06T11:30:54;102306.20;;;10.10
66403;BMP180;53212;52.112;5.144;2024-03-06T11:33:20;102303.20;;;10.20
66403;BMP180;53212;52.112;5.144;2024-03-06T11:36:20;102308.00;;;10.30
66403;BMP180;53212;52.112;5.144;2024-03-06T11:38:56;102312.80;;;10.40
66403;BMP180;53212;52.112;5.144;2024-03-06T11:41:27;102308.20;;;10.50
66403;BMP180;53212;52.112;5.144;2024-03-06T11:43:55;102315.40;;;10.50
66403;BMP180;53212;52.112;5.144;2024-03-06T11:46:44;102319.80;;;10.60
66403;BMP180;53212;52.112;5.144;2024-03-06T11:49:23;102318.60;;;10.68
66403;BMP180;53212;52.112;5.144;2024-03-06T11:51:59;102323.20;;;10.70
66403;BMP180;53212;52.112;5.144;2024-03-06T11:54:25;102322.20;;;10.80
66403;BMP180;53212;52.112;5.144;2024-03-06T11:56:59;102324.20;;;10.80
66403;BMP180;53212;52.112;5.144;2024-03-06T11:59:30;102320.20;;;10.90
66403;BMP180;53212;52.112;5.144;2024-03-06T12:01:57;102317.40;;;11.00
66403;BMP180;53212;52.112;5.144;2024-03-06T12:04:25;102322.00;;;11.00
66403;BMP180;53212;52.112;5.144;2024-03-06T12:06:50;102326.00;;;11.10
66403;BMP180;53212;52.112;5.144;2024-03-06T12:09:16;102323.40;;;11.16
66403;BMP180;53212;52.112;5.144;2024-03-06T12:11:43;102327.80;;;11.20
66403;BMP180;53212;52.112;5.144;2024-03-06T12:14:18;102326.60;;;11.20
66403;BMP180;53212;52.112;5.144;2024-03-06T12:17:01;102322.20;;;11.30
66403;BMP180;53212;52.112;5.144;2024-03-06T12:19:33;102323.80;;;11.38
66403;BMP180;53212;52.112;5.144;2024-03-06T12:22:00;102323.20;;;11.40
66403;BMP180;53212;52.112;5.144;2024-03-06T12:24:26;102323.80;;;11.48
66403;BMP180;53212;52.112;5.144;2024-03-06T12:27:01;102324.60;;;11.50
66403;BMP180;53212;52.112;5.144;2024-03-06T12:29:29;102327.40;;;11.50
66403;BMP180;53212;52.112;5.144;2024-03-06T12:31:59;102328.60;;;11.56
66403;BMP180;53212;52.112;5.144;2024-03-06T12:34:25;102327.80;;;11.60
66403;BMP180;53212;52.112;5.144;2024-03-06T12:36:50;102327.60;;;11.62
66403;BMP180;53212;52.112;5.144;2024-03-06T12:39:17;102322.80;;;11.70
66403;BMP180;53212;52.112;5.144;2024-03-06T12:41:50;102329.40;;;11.70
66403;BMP180;53212;52.112;5.144;2024-03-06T12:44:16;102327.60;;;11.80
66403;BMP180;53212;52.112;5.144;2024-03-06T12:46:42;102325.40;;;11.72
66403;BMP180;53212;52.112;5.144;2024-03-06T12:49:07;102329.40;;;11.78
66403;BMP180;53212;52.112;5.144;2024-03-06T12:51:33;102324.80;;;11.80
66403;BMP180;53212;52.112;5.144;2024-03-06T12:53:59;102326.40;;;11.80
66403;BMP180;53212;52.112;5.144;2024-03-06T12:56:24;102326.60;;;11.90
66403;BMP180;53212;52.112;5.144;2024-03-06T12:58:52;102323.00;;;11.96
66403;BMP180;53212;52.112;5.144;2024-03-06T13:01:17;102322.00;;;12.00
66403;BMP180;53212;52.112;5.144;2024-03-06T13:03:43;102321.20;;;12.10
66403;BMP180;53212;52.112;5.144;2024-03-06T13:06:08;102323.60;;;12.00
66403;BMP180;53212;52.112;5.144;2024-03-06T13:08:35;102316.60;;;11.96
66403;BMP180;53212;52.112;5.144;2024-03-06T13:11:01;102314.20;;;12.00
66403;BMP180;53212;52.112;5.144;2024-03-06T13:13:27;102316.40;;;12.00
66403;BMP180;53212;52.112;5.144;2024-03-06T13:15:55;102319.60;;;12.10
66403;BMP180;53212;52.112;5.144;2024-03-06T13:18:20;102320.40;;;12.18
66403;BMP180;53212;52.112;5.144;2024-03-06T13:20:46;102323.40;;;12.16
66403;BMP180;53212;52.112;5.144;2024-03-06T13:23:12;102316.40;;;12.20
66403;BMP180;53212;52.112;5.144;2024-03-06T13:25:38;102319.00;;;12.20
66403;BMP180;53212;52.112;5.144;2024-03-06T13:28:04;102319.80;;;12.30
66403;BMP180;53212;52.112;5.144;2024-03-06T13:30:31;102325.00;;;12.30
66403;BMP180;53212;52.112;5.144;2024-03-06T13:32:57;102325.20;;;12.30
66403;BMP180;53212;52.112;5.144;2024-03-06T13:35:22;102328.20;;;12.30
66403;BMP180;53212;52.112;5.144;2024-03-06T13:37:48;102329.00;;;12.30
66403;BMP180;53212;52.112;5.144;2024-03-06T13:40:15;102330.40;;;12.40
66403;BMP180;53212;52.112;5.144;2024-03-06T13:42:42;102328.00;;;12.40
66403;BMP180;53212;52.112;5.144;2024-03-06T13:45:09;102332.60;;;12.50
66403;BMP180;53212;52.112;5.144;2024-03-06T13:47:41;102337.80;;;12.50
66403;BMP180;53212;52.112;5.144;2024-03-06T13:50:15;102335.40;;;12.60
66403;BMP180;53212;52.112;5.144;2024-03-06T13:52:42;102333.00;;;12.60
66403;BMP180;53212;52.112;5.144;2024-03-06T13:55:08;102332.60;;;12.60
66403;BMP180;53212;52.112;5.144;2024-03-06T13:57:37;102331.20;;;12.66
66403;BMP180;53212;52.112;5.144;2024-03-06T14:00:09;102331.40;;;12.60
66403;BMP180;53212;52.112;5.144;2024-03-06T14:02:44;102331.80;;;12.70
66403;BMP180;53212;52.112;5.144;2024-03-06T14:05:13;102334.40;;;12.70
66403;BMP180;53212;52.112;5.144;2024-03-06T14:07:40;102337.20;;;12.80
66403;BMP180;53212;52.112;5.144;2024-03-06T14:10:07;102343.60;;;12.88
66403;BMP180;53212;52.112;5.144;2024-03-06T14:12:34;102337.80;;;12.90